sensor_id;sensor_type;location;lat;lon;timestamp;temperature;humidity
13808;DHT22;40769;51.512;5.494;2023-06-01T00:00:55;16.20;99.90
13808;DHT22;40769;51.512;5.494;2023-06-01T00:03:22;16.10;99.90
13808;DHT22;40769;51.512;5.494;2023-06-01T00:05:48;16.10;99.90
13808;DHT22;40769;51.512;5.494;2023-06-01T00:08:14;16.10;99.90
13808;DHT22;40769;51.512;5.494;2023-06-01T00:10:40;16.00;99.90
13808;DHT22;40769;51.512;5.494;2023-06-01T00:13:06;16.00;99.90
13808;DHT22;40769;51.512;5.494;2023-06-01T00:15:31;15.90;99.90
13808;DHT22;40769;51.512;5.494;2023-06-01T00:17:57;15.90;99.90
13808;DHT22;40769;51.512;5.494;2023-06-01T00:20:23;15.80;99.90
13808;DHT22;40769;51.512;5.494;2023-06-01T00:22:49;15.80;99.90
13808;DHT22;40769;51.512;5.494;2023-06-01T00:25:15;15.70;99.90
13808;DHT22;40769;51.512;5.494;2023-06-01T00:27:41;15.70;99.90
13808;DHT22;40769;51.512;5.494;2023-06-01T00:30:07;15.60;99.90
13808;DHT22;40769;51.512;5.494;2023-06-01T00:32:32;15.50;99.90
13808;DHT22;40769;51.512;5.494;2023-06-01T00:34:58;15.50;99.90
13808;DHT22;40769;51.512;5.494;2023-06-01T00:37:24;15.50;99.90
13808;DHT22;40769;51.512;5.494;2023-06-01T00:39:49;15.40;99.90
13808;DHT22;40769;51.512;5.494;2023-06-01T00:42:15;15.40;99.90
13808;DHT22;40769;51.512;5.494;2023-06-01T00:44:40;15.40;99.90
13808;DHT22;40769;51.512;5.494;2023-06-01T00:47:06;15.20;99.90
13808;DHT22;40769;51.512;5.494;2023-06-01T00:49:33;15.20;99.90
13808;DHT22;40769;51.512;5.494;2023-06-01T00:52:00;15.10;99.90
13808;DHT22;40769;51.512;5.494;2023-06-01T00:54:25;15.10;99.90
13808;DHT22;40769;51.512;5.494;2023-06-01T00:56:52;15.00;99.90
13808;DHT22;40769;51.512;5.494;2023-06-01T00:59:17;15.00;99.90
13808;DHT22;40769;51.512;5.494;2023-06-01T01:01:43;15.00;99.90
13808;DHT22;40769;51.512;5.494;2023-06-01T01:04:09;14.90;99.90
13808;DHT22;40769;51.512;5.494;2023-06-01T01:07:06;14.80;99.90
13808;DHT22;40769;51.512;5.494;2023-06-01T01:09:41;14.80;99.90
13808;DHT22;40769;51.512;5.494;2023-06-01T01:12:17;14.80;99.90
13808;DHT22;40769;51.512;5.494;2023-06-01T01:14:52;14.70;99.90
13808;DHT22;40769;51.512;5.494;2023-06-01T01:17:35;14.70;99.90
13808;DHT22;40769;51.512;5.494;2023-06-01T01:20:14;14.60;99.90
13808;DHT22;40769;51.512;5.494;2023-06-01T01:30:54;14.40;99.90
13808;DHT22;40769;51.512;5.494;2023-06-01T01:33:21;14.40;99.90
13808;DHT22;40769;51.512;5.494;2023-06-01T01:35:48;14.30;99.90
13808;DHT22;40769;51.512;5.494;2023-06-01T01:38:14;14.20;99.90
13808;DHT22;40769;51.512;5.494;2023-06-01T01:40:40;14.20;99.90
13808;DHT22;40769;51.512;5.494;2023-06-01T01:43:06;14.10;99.90
13808;DHT22;40769;51.512;5.494;2023-06-01T01:45:32;14.00;99.90
13808;DHT22;40769;51.512;5.494;2023-06-01T01:48:15;14.10;99.90
13808;DHT22;40769;51.512;5.494;2023-06-01T01:50:52;14.10;99.90
13808;DHT22;40769;51.512;5.494;2023-06-01T01:53:20;14.10;99.90
13808;DHT22;40769;51.512;5.494;2023-06-01T01:55:50;14.00;99.90
13808;DHT22;40769;51.512;5.494;2023-06-01T01:58:17;14.00;99.90
13808;DHT22;40769;51.512;5.494;2023-06-01T02:00:43;13.90;99.90
13808;DHT22;40769;51.512;5.494;2023-06-01T02:03:18;13.90;99.90
13808;DHT22;40769;51.512;5.494;2023-06-01T02:05:44;13.80;99.90
13808;DHT22;40769;51.512;5.494;2023-06-01T02:08:10;13.70;99.90
13808;DHT22;40769;51.512;5.494;2023-06-01T02:10:36;13.70;99.90
13808;DHT22;40769;51.512;5.494;2023-06-01T02:13:03;13.70;99.90
13808;DHT22;40769;51.512;5.494;2023-06-01T02:15:28;13.60;99.90
13808;DHT22;40769;51.512;5.494;2023-06-01T02:17:54;13.60;99.90
13808;DHT22;40769;51.512;5.494;2023-06-01T02:20:20;13.70;99.90
13808;DHT22;40769;51.512;5.494;2023-06-01T02:22:45;13.80;99.90
13808;DHT22;40769;51.512;5.494;2023-06-01T02:25:11;13.40;99.90
13808;DHT22;40769;51.512;5.494;2023-06-01T02:27:37;13.40;99.90
13808;DHT22;40769;51.512;5.494;2023-06-01T02:30:03;13.40;99.90
13808;DHT22;40769;51.512;5.494;2023-06-01T02:32:31;13.30;99.90
13808;DHT22;40769;51.512;5.494;2023-06-01T02:34:58;13.30;99.90
13808;DHT22;40769;51.512;5.494;2023-06-01T02:37:23;13.20;99.90
13808;DHT22;40769;51.512;5.494;2023-06-01T02:39:49;13.20;99.90
13808;DHT22;40769;51.512;5.494;2023-06-01T02:42:14;13.20;99.90
13808;DHT22;40769;51.512;5.494;2023-06-01T02:44:40;13.10;99.90
13808;DHT22;40769;51.512;5.494;2023-06-01T02:47:06;13.10;99.90
13808;DHT22;40769;51.512;5.494;2023-06-01T02:49:32;13.20;99.90
13808;DHT22;40769;51.512;5.494;2023-06-01T02:51:57;13.20;99.90
13808;DHT22;40769;51.512;5.494;2023-06-01T02:54:23;13.20;99.90
13808;DHT22;40769;51.512;5.494;2023-06-01T02:56:49;13.20;99.90
13808;DHT22;40769;51.512;5.494;2023-06-01T02:59:14;13.20;99.90
13808;DHT22;40769;51.512;5.494;2023-06-01T03:01:40;13.20;99.90
13808;DHT22;40769;51.512;5.494;2023-06-01T03:04:06;13.20;99.90
13808;DHT22;40769;51.512;5.494;2023-06-01T03:06:33;13.20;99.90
13808;DHT22;40769;51.512;5.494;2023-06-01T03:09:03;13.20;99.90
13808;DHT22;40769;51.512;5.494;2023-06-01T03:11:29;13.20;99.90
13808;DHT22;40769;51.512;5.494;2023-06-01T03:13:55;13.20;99.90
13808;DHT22;40769;51.512;5.494;2023-06-01T03:16:23;13.20;99.90
13808;DHT22;40769;51.512;5.494;2023-06-01T03:18:48;13.20;99.90
13808;DHT22;40769;51.512;5.494;2023-06-01T03:21:14;13.20;99.90
13808;DHT22;40769;51.512;5.494;2023-06-01T03:23:41;13.20;99.90
13808;DHT22;40769;51.512;5.494;2023-06-01T03:26:10;13.20;99.90
13808;DHT22;40769;51.512;5.494;2023-06-01T03:28:38;13.20;99.90
13808;DHT22;40769;51.512;5.494;2023-06-01T03:31:04;13.30;99.90
13808;DHT22;40769;51.512;5.494;2023-06-01T03:33:30;13.20;99.90
13808;DHT22;40769;51.512;5.494;2023-06-01T03:35:56;13.20;99.90
13808;DHT22;40769;51.512;5.494;2023-06-01T03:38:22;13.20;99.90
13808;DHT22;40769;51.512;5.494;2023-06-01T03:40:47;13.20;99.90
13808;DHT22;40769;51.512;5.494;2023-06-01T03:43:13;13.30;99.90
13808;DHT22;40769;51.512;5.494;2023-06-01T03:45:39;13.30;99.90
13808;DHT22;40769;51.512;5.494;2023-06-01T03:48:04;13.30;99.90
13808;DHT22;40769;51.512;5.494;2023-06-01T03:50:30;13.30;99.90
13808;DHT22;40769;51.512;5.494;2023-06-01T03:52:56;13.30;99.90
13808;DHT22;40769;51.512;5.494;2023-06-01T03:55:21;13.30;99.90
13808;DHT22;40769;51.512;5.494;2023-06-01T03:57:48;13.30;99.90
13808;DHT22;40769;51.512;5.494;2023-06-01T04:00:13;13.30;99.90
13808;DHT22;40769;51.512;5.494;2023-06-01T04:05:15;13.30;99.90
13808;DHT22;40769;51.512;5.494;2023-06-01T04:07:46;13.30;99.90
13808;DHT22;40769;51.512;5.494;2023-06-01T04:10:12;13.40;99.90
13808;DHT22;40769;51.512;5.494;2023-06-01T04:12:40;13.40;99.90
13808;DHT22;40769;51.512;5.494;2023-06-01T04:15:07;13.40;99.90
13808;DHT22;40769;51.512;5.494;2023-06-01T04:17:36;13.50;99.90
13808;DHT22;40769;51.512;5.494;2023-06-01T04:20:02;13.40;99.90
13808;DHT22;40769;51.512;5.494;2023-06-01T04:22:31;13.50;99.90
13808;DHT22;40769;51.512;5.494;2023-06-01T04:24:57;13.50;99.90
13808;DHT22;40769;51.512;5.494;2023-06-01T04:27:23;13.50;99.90
13808;DHT22;40769;51.512;5.494;2023-06-01T04:29:50;13.60;99.90
13808;DHT22;40769;51.512;5.494;2023-06-01T04:32:16;13.80;99.90
13808;DHT22;40769;51.512;5.494;2023-06-01T04:34:49;13.70;99.90
13808;DHT22;40769;51.512;5.494;2023-06-01T04:37:16;12.80;99.90
13808;DHT22;40769;51.512;5.494;2023-06-01T04:39:45;13.80;99.90
13808;DHT22;40769;51.512;5.494;2023-06-01T04:42:14;13.80;99.90
13808;DHT22;40769;51.512;5.494;2023-06-01T04:44:43;13.90;99.90
13808;DHT22;40769;51.512;5.494;2023-06-01T04:47:10;13.90;99.90
13808;DHT22;40769;51.512;5.494;2023-06-01T04:49:36;14.00;99.90
13808;DHT22;40769;51.512;5.494;2023-06-01T04:52:02;14.00;99.90
13808;DHT22;40769;51.512;5.494;2023-06-01T04:54:29;14.10;99.90
13808;DHT22;40769;51.512;5.494;2023-06-01T04:56:55;14.10;99.90
13808;DHT22;40769;51.512;5.494;2023-06-01T04:59:21;14.10;99.90
13808;DHT22;40769;51.512;5.494;2023-06-01T05:01:47;14.20;99.90
13808;DHT22;40769;51.512;5.494;2023-06-01T05:04:12;14.20;99.90
13808;DHT22;40769;51.512;5.494;2023-06-01T05:06:38;14.20;99.90
13808;DHT22;40769;51.512;5.494;2023-06-01T05:09:04;14.30;99.90
13808;DHT22;40769;51.512;5.494;2023-06-01T05:11:30;14.30;99.90
13808;DHT22;40769;51.512;5.494;2023-06-01T05:13:56;14.30;99.90
13808;DHT22;40769;51.512;5.494;2023-06-01T05:16:27;14.30;99.90
13808;DHT22;40769;51.512;5.494;2023-06-01T05:18:52;14.20;99.90
13808;DHT22;40769;51.512;5.494;2023-06-01T05:21:18;14.30;99.90
13808;DHT22;40769;51.512;5.494;2023-06-01T05:23:44;14.30;99.90
13808;DHT22;40769;51.512;5.494;2023-06-01T05:26:10;14.30;99.90
13808;DHT22;40769;51.512;5.494;2023-06-01T05:28:35;14.30;99.90
13808;DHT22;40769;51.512;5.494;2023-06-01T05:31:01;14.30;99.90
13808;DHT22;40769;51.512;5.494;2023-06-01T05:33:27;14.30;99.90
13808;DHT22;40769;51.512;5.494;2023-06-01T05:35:53;14.30;99.90
13808;DHT22;40769;51.512;5.494;2023-06-01T05:38:18;14.30;99.90
13808;DHT22;40769;51.512;5.494;2023-06-01T05:40:45;14.30;99.90
13808;DHT22;40769;51.512;5.494;2023-06-01T05:43:11;14.30;99.90
13808;DHT22;40769;51.512;5.494;2023-06-01T05:45:36;14.30;99.90
13808;DHT22;40769;51.512;5.494;2023-06-01T05:48:02;14.30;99.90
13808;DHT22;40769;51.512;5.494;2023-06-01T05:50:28;14.20;99.90
13808;DHT22;40769;51.512;5.494;2023-06-01T05:52:54;13.90;99.90
13808;DHT22;40769;51.512;5.494;2023-06-01T05:55:19;14.40;99.90
13808;DHT22;40769;51.512;5.494;2023-06-01T05:57:45;14.50;99.90
13808;DHT22;40769;51.512;5.494;2023-06-01T06:00:11;14.60;99.90
13808;DHT22;40769;51.512;5.494;2023-06-01T06:02:44;14.70;99.90
13808;DHT22;40769;51.512;5.494;2023-06-01T06:05:10;14.90;99.90
13808;DHT22;40769;51.512;5.494;2023-06-01T06:07:36;14.80;99.90
13808;DHT22;40769;51.512;5.494;2023-06-01T06:10:03;14.90;99.90
13808;DHT22;40769;51.512;5.494;2023-06-01T06:12:29;14.90;99.90
13808;DHT22;40769;51.512;5.494;2023-06-01T06:14:55;15.00;99.90
13808;DHT22;40769;51.512;5.494;2023-06-01T06:17:21;15.00;99.90
13808;DHT22;40769;51.512;5.494;2023-06-01T06:19:47;15.10;99.90
13808;DHT22;40769;51.512;5.494;2023-06-01T06:22:14;15.20;99.90
13808;DHT22;40769;51.512;5.494;2023-06-01T06:24:39;15.30;99.90
13808;DHT22;40769;51.512;5.494;2023-06-01T06:27:05;15.40;99.90
13808;DHT22;40769;51.512;5.494;2023-06-01T06:29:32;15.50;99.90
13808;DHT22;40769;51.512;5.494;2023-06-01T06:31:57;15.50;99.90
13808;DHT22;40769;51.512;5.494;2023-06-01T06:34:23;15.60;99.90
13808;DHT22;40769;51.512;5.494;2023-06-01T06:36:49;15.80;99.90
13808;DHT22;40769;51.512;5.494;2023-06-01T06:39:14;15.80;99.90
13808;DHT22;40769;51.512;5.494;2023-06-01T06:41:41;15.90;99.90
13808;DHT22;40769;51.512;5.494;2023-06-01T06:44:07;16.00;99.90
13808;DHT22;40769;51.512;5.494;2023-06-01T06:46:33;16.10;99.90
13808;DHT22;40769;51.512;5.494;2023-06-01T06:48:59;16.20;99.90
13808;DHT22;40769;51.512;5.494;2023-06-01T06:51:24;16.20;99.90
13808;DHT22;40769;51.512;5.494;2023-06-01T06:53:50;16.30;99.90
13808;DHT22;40769;51.512;5.494;2023-06-01T06:56:16;16.40;99.90
13808;DHT22;40769;51.512;5.494;2023-06-01T06:58:43;16.50;99.90
13808;DHT22;40769;51.512;5.494;2023-06-01T07:01:08;16.70;99.90
13808;DHT22;40769;51.512;5.494;2023-06-01T07:03:34;16.80;99.90
13808;DHT22;40769;51.512;5.494;2023-06-01T07:06:00;16.90;99.90
13808;DHT22;40769;51.512;5.494;2023-06-01T07:08:25;17.10;99.90
13808;DHT22;40769;51.512;5.494;2023-06-01T07:10:53;17.20;99.90
13808;DHT22;40769;51.512;5.494;2023-06-01T07:13:19;17.30;99.90
13808;DHT22;40769;51.512;5.494;2023-06-01T07:15:46;17.30;99.90
13808;DHT22;40769;51.512;5.494;2023-06-01T07:18:11;17.40;99.90
13808;DHT22;40769;51.512;5.494;2023-06-01T07:20:37;17.40;99.90
13808;DHT22;40769;51.512;5.494;2023-06-01T07:23:02;17.50;99.90
13808;DHT22;40769;51.512;5.494;2023-06-01T07:25:28;17.60;99.90
13808;DHT22;40769;51.512;5.494;2023-06-01T07:27:54;17.80;99.90
13808;DHT22;40769;51.512;5.494;2023-06-01T07:30:22;18.10;99.90
13808;DHT22;40769;51.512;5.494;2023-06-01T07:32:47;18.40;99.90
13808;DHT22;40769;51.512;5.494;2023-06-01T07:35:13;18.70;99.90
13808;DHT22;40769;51.512;5.494;2023-06-01T07:37:39;19.10;99.90
13808;DHT22;40769;51.512;5.494;2023-06-01T07:40:06;19.40;99.90
13808;DHT22;40769;51.512;5.494;2023-06-01T07:42:32;19.80;99.90
13808;DHT22;40769;51.512;5.494;2023-06-01T07:44:57;20.10;99.90
13808;DHT22;40769;51.512;5.494;2023-06-01T07:47:23;20.40;99.90
13808;DHT22;40769;51.512;5.494;2023-06-01T07:49:50;20.70;99.90
13808;DHT22;40769;51.512;5.494;2023-06-01T07:52:17;20.90;99.90
13808;DHT22;40769;51.512;5.494;2023-06-01T07:54:43;21.20;99.90
13808;DHT22;40769;51.512;5.494;2023-06-01T07:57:08;21.50;99.90
13808;DHT22;40769;51.512;5.494;2023-06-01T07:59:34;21.80;99.90
13808;DHT22;40769;51.512;5.494;2023-06-01T08:02:00;22.10;99.90
13808;DHT22;40769;51.512;5.494;2023-06-01T08:04:26;22.30;99.90
13808;DHT22;40769;51.512;5.494;2023-06-01T08:06:52;22.60;99.90
13808;DHT22;40769;51.512;5.494;2023-06-01T08:09:19;22.80;99.90
13808;DHT22;40769;51.512;5.494;2023-06-01T08:11:45;23.00;99.90
13808;DHT22;40769;51.512;5.494;2023-06-01T08:14:11;23.10;99.90
13808;DHT22;40769;51.512;5.494;2023-06-01T08:16:37;23.20;99.90
13808;DHT22;40769;51.512;5.494;2023-06-01T08:19:02;23.40;99.90
13808;DHT22;40769;51.512;5.494;2023-06-01T08:21:28;23.30;99.90
13808;DHT22;40769;51.512;5.494;2023-06-01T08:23:54;23.40;99.90
13808;DHT22;40769;51.512;5.494;2023-06-01T08:26:21;23.50;99.90
13808;DHT22;40769;51.512;5.494;2023-06-01T08:28:46;23.70;99.90
13808;DHT22;40769;51.512;5.494;2023-06-01T08:31:20;23.90;99.90
13808;DHT22;40769;51.512;5.494;2023-06-01T08:33:47;24.10;99.90
13808;DHT22;40769;51.512;5.494;2023-06-01T08:36:12;24.10;99.90
13808;DHT22;40769;51.512;5.494;2023-06-01T08:38:39;24.20;99.90
13808;DHT22;40769;51.512;5.494;2023-06-01T08:41:18;24.30;99.90
13808;DHT22;40769;51.512;5.494;2023-06-01T08:43:58;24.40;99.90
13808;DHT22;40769;51.512;5.494;2023-06-01T08:46:25;24.50;99.90
13808;DHT22;40769;51.512;5.494;2023-06-01T08:48:53;24.60;99.90
13808;DHT22;40769;51.512;5.494;2023-06-01T08:51:23;24.80;99.90
13808;DHT22;40769;51.512;5.494;2023-06-01T08:53:51;24.90;99.90
13808;DHT22;40769;51.512;5.494;2023-06-01T08:56:17;25.00;99.90
13808;DHT22;40769;51.512;5.494;2023-06-01T08:58:43;25.10;99.90
13808;DHT22;40769;51.512;5.494;2023-06-01T09:01:12;25.20;99.90
13808;DHT22;40769;51.512;5.494;2023-06-01T09:03:41;25.40;99.90
13808;DHT22;40769;51.512;5.494;2023-06-01T09:06:06;25.50;99.90
13808;DHT22;40769;51.512;5.494;2023-06-01T09:08:32;25.60;99.90
13808;DHT22;40769;51.512;5.494;2023-06-01T09:10:58;25.60;99.90
13808;DHT22;40769;51.512;5.494;2023-06-01T09:13:37;25.60;99.90
13808;DHT22;40769;51.512;5.494;2023-06-01T09:16:03;25.80;99.90
13808;DHT22;40769;51.512;5.494;2023-06-01T09:18:29;25.80;99.90
13808;DHT22;40769;51.512;5.494;2023-06-01T09:20:55;25.90;99.90
13808;DHT22;40769;51.512;5.494;2023-06-01T09:23:34;26.00;99.90
13808;DHT22;40769;51.512;5.494;2023-06-01T09:26:07;26.00;99.90
13808;DHT22;40769;51.512;5.494;2023-06-01T09:31:37;26.20;99.90
13808;DHT22;40769;51.512;5.494;2023-06-01T09:34:04;26.40;99.90
13808;DHT22;40769;51.512;5.494;2023-06-01T09:36:30;26.40;99.90
13808;DHT22;40769;51.512;5.494;2023-06-01T09:39:03;26.40;99.90
13808;DHT22;40769;51.512;5.494;2023-06-01T09:41:49;26.40;99.90
13808;DHT22;40769;51.512;5.494;2023-06-01T09:44:29;26.50;99.90
13808;DHT22;40769;51.512;5.494;2023-06-01T09:47:11;26.50;99.90
13808;DHT22;40769;51.512;5.494;2023-06-01T09:49:40;26.50;99.90
13808;DHT22;40769;51.512;5.494;2023-06-01T09:54:33;26.50;99.90
13808;DHT22;40769;51.512;5.494;2023-06-01T09:57:01;26.40;99.90
13808;DHT22;40769;51.512;5.494;2023-06-01T09:59:27;26.50;99.90
13808;DHT22;40769;51.512;5.494;2023-06-01T10:01:55;26.60;99.90
13808;DHT22;40769;51.512;5.494;2023-06-01T10:04:25;26.80;99.90
13808;DHT22;40769;51.512;5.494;2023-06-01T10:06:56;26.90;99.90
13808;DHT22;40769;51.512;5.494;2023-06-01T10:09:24;27.10;99.90
13808;DHT22;40769;51.512;5.494;2023-06-01T10:11:54;27.20;99.80
13808;DHT22;40769;51.512;5.494;2023-06-01T10:14:24;27.20;97.90
13808;DHT22;40769;51.512;5.494;2023-06-01T10:16:51;27.30;97.40
13808;DHT22;40769;51.512;5.494;2023-06-01T10:19:19;27.30;98.10
13808;DHT22;40769;51.512;5.494;2023-06-01T10:21:45;27.40;98.40
13808;DHT22;40769;51.512;5.494;2023-06-01T10:24:12;27.50;98.60
13808;DHT22;40769;51.512;5.494;2023-06-01T10:29:37;27.70;94.90
13808;DHT22;40769;51.512;5.494;2023-06-01T10:32:03;27.80;95.80
13808;DHT22;40769;51.512;5.494;2023-06-01T10:34:40;27.80;95.90
13808;DHT22;40769;51.512;5.494;2023-06-01T10:37:25;27.80;94.50
13808;DHT22;40769;51.512;5.494;2023-06-01T10:39:50;27.70;94.70
13808;DHT22;40769;51.512;5.494;2023-06-01T10:52:38;28.60;92.60
13808;DHT22;40769;51.512;5.494;2023-06-01T10:57:33;28.70;93.40
13808;DHT22;40769;51.512;5.494;2023-06-01T11:03:05;28.80;92.90
13808;DHT22;40769;51.512;5.494;2023-06-01T11:10:55;29.00;92.60
13808;DHT22;40769;51.512;5.494;2023-06-01T11:13:33;29.20;92.40
13808;DHT22;40769;51.512;5.494;2023-06-01T11:18:45;29.50;91.50
13808;DHT22;40769;51.512;5.494;2023-06-01T11:24:07;29.60;90.30
13808;DHT22;40769;51.512;5.494;2023-06-01T11:26:36;29.60;89.60
13808;DHT22;40769;51.512;5.494;2023-06-01T11:29:08;29.50;89.80
13808;DHT22;40769;51.512;5.494;2023-06-01T11:31:36;29.50;88.40
13808;DHT22;40769;51.512;5.494;2023-06-01T11:34:03;29.40;87.60
13808;DHT22;40769;51.512;5.494;2023-06-01T11:36:29;29.40;86.20
13808;DHT22;40769;51.512;5.494;2023-06-01T11:38:56;29.30;87.10
13808;DHT22;40769;51.512;5.494;2023-06-01T11:41:25;29.30;86.10
13808;DHT22;40769;51.512;5.494;2023-06-01T11:43:55;29.30;86.40
13808;DHT22;40769;51.512;5.494;2023-06-01T11:46:22;29.30;83.80
13808;DHT22;40769;51.512;5.494;2023-06-01T11:49:05;29.10;84.00
13808;DHT22;40769;51.512;5.494;2023-06-01T11:51:37;29.10;83.30
13808;DHT22;40769;51.512;5.494;2023-06-01T11:54:03;29.10;84.20
13808;DHT22;40769;51.512;5.494;2023-06-01T11:56:33;29.10;84.90
13808;DHT22;40769;51.512;5.494;2023-06-01T11:59:01;29.10;82.10
13808;DHT22;40769;51.512;5.494;2023-06-01T12:01:27;29.10;84.20
13808;DHT22;40769;51.512;5.494;2023-06-01T12:03:53;29.20;84.70
13808;DHT22;40769;51.512;5.494;2023-06-01T12:06:23;29.20;85.30
13808;DHT22;40769;51.512;5.494;2023-06-01T12:08:53;29.30;84.00
13808;DHT22;40769;51.512;5.494;2023-06-01T12:11:22;29.50;83.40
13808;DHT22;40769;51.512;5.494;2023-06-01T12:13:52;29.60;84.80
13808;DHT22;40769;51.512;5.494;2023-06-01T12:16:18;29.70;83.60
13808;DHT22;40769;51.512;5.494;2023-06-01T12:18:44;29.80;84.30
13808;DHT22;40769;51.512;5.494;2023-06-01T12:21:14;30.00;83.80
13808;DHT22;40769;51.512;5.494;2023-06-01T12:23:40;30.10;78.40
13808;DHT22;40769;51.512;5.494;2023-06-01T12:26:07;30.00;79.80
13808;DHT22;40769;51.512;5.494;2023-06-01T12:28:52;30.00;78.80
13808;DHT22;40769;51.512;5.494;2023-06-01T12:31:21;30.00;78.50
13808;DHT22;40769;51.512;5.494;2023-06-01T12:33:47;29.90;79.20
13808;DHT22;40769;51.512;5.494;2023-06-01T12:36:35;29.80;79.60
13808;DHT22;40769;51.512;5.494;2023-06-01T12:39:04;29.80;78.00
13808;DHT22;40769;51.512;5.494;2023-06-01T12:41:30;29.80;79.10
13808;DHT22;40769;51.512;5.494;2023-06-01T12:43:57;29.80;79.30
13808;DHT22;40769;51.512;5.494;2023-06-01T12:46:28;29.90;79.90
13808;DHT22;40769;51.512;5.494;2023-06-01T12:49:14;30.10;78.90
13808;DHT22;40769;51.512;5.494;2023-06-01T12:51:42;30.20;78.40
13808;DHT22;40769;51.512;5.494;2023-06-01T12:54:08;30.40;79.70
13808;DHT22;40769;51.512;5.494;2023-06-01T12:56:33;30.60;79.20
13808;DHT22;40769;51.512;5.494;2023-06-01T12:58:59;30.80;78.50
13808;DHT22;40769;51.512;5.494;2023-06-01T13:01:25;31.00;78.10
13808;DHT22;40769;51.512;5.494;2023-06-01T13:03:51;31.10;75.70
13808;DHT22;40769;51.512;5.494;2023-06-01T13:06:18;31.20;75.80
13808;DHT22;40769;51.512;5.494;2023-06-01T13:08:46;31.20;75.70
13808;DHT22;40769;51.512;5.494;2023-06-01T13:11:12;31.30;72.80
13808;DHT22;40769;51.512;5.494;2023-06-01T13:13:38;31.20;72.50
13808;DHT22;40769;51.512;5.494;2023-06-01T13:16:03;31.10;72.60
13808;DHT22;40769;51.512;5.494;2023-06-01T13:18:29;31.00;73.00
13808;DHT22;40769;51.512;5.494;2023-06-01T13:20:55;30.90;72.80
13808;DHT22;40769;51.512;5.494;2023-06-01T13:23:22;30.90;73.20
13808;DHT22;40769;51.512;5.494;2023-06-01T13:25:47;30.90;73.30
13808;DHT22;40769;51.512;5.494;2023-06-01T13:28:14;30.90;73.50
13808;DHT22;40769;51.512;5.494;2023-06-01T13:30:41;31.00;73.40
13808;DHT22;40769;51.512;5.494;2023-06-01T13:33:07;31.10;73.00
13808;DHT22;40769;51.512;5.494;2023-06-01T13:35:33;31.10;72.20
13808;DHT22;40769;51.512;5.494;2023-06-01T13:37:59;31.10;70.30
13808;DHT22;40769;51.512;5.494;2023-06-01T13:40:28;31.00;70.40
13808;DHT22;40769;51.512;5.494;2023-06-01T13:42:54;30.90;68.20
13808;DHT22;40769;51.512;5.494;2023-06-01T13:45:20;30.80;70.00
13808;DHT22;40769;51.512;5.494;2023-06-01T13:47:47;30.70;70.20
13808;DHT22;40769;51.512;5.494;2023-06-01T13:50:14;30.70;70.10
13808;DHT22;40769;51.512;5.494;2023-06-01T13:52:41;30.60;69.70
13808;DHT22;40769;51.512;5.494;2023-06-01T13:55:08;30.50;69.60
13808;DHT22;40769;51.512;5.494;2023-06-01T13:57:37;30.40;69.00
13808;DHT22;40769;51.512;5.494;2023-06-01T14:00:05;30.30;68.50
13808;DHT22;40769;51.512;5.494;2023-06-01T14:02:30;30.10;68.20
13808;DHT22;40769;51.512;5.494;2023-06-01T14:04:56;30.00;68.80
13808;DHT22;40769;51.512;5.494;2023-06-01T14:07:22;29.90;69.60
13808;DHT22;40769;51.512;5.494;2023-06-01T14:09:47;30.00;70.40
13808;DHT22;40769;51.512;5.494;2023-06-01T14:12:13;30.00;69.60
13808;DHT22;40769;51.512;5.494;2023-06-01T14:14:39;30.30;70.20
13808;DHT22;40769;51.512;5.494;2023-06-01T14:17:05;30.20;70.20
13808;DHT22;40769;51.512;5.494;2023-06-01T14:19:32;30.30;70.50
13808;DHT22;40769;51.512;5.494;2023-06-01T14:21:57;30.50;70.50
13808;DHT22;40769;51.512;5.494;2023-06-01T14:24:23;30.50;69.00
13808;DHT22;40769;51.512;5.494;2023-06-01T14:26:48;30.40;68.90
13808;DHT22;40769;51.512;5.494;2023-06-01T14:29:14;30.40;69.00
13808;DHT22;40769;51.512;5.494;2023-06-01T14:31:40;30.40;69.70
13808;DHT22;40769;51.512;5.494;2023-06-01T14:34:06;30.40;69.60
13808;DHT22;40769;51.512;5.494;2023-06-01T14:36:31;30.50;69.80
13808;DHT22;40769;51.512;5.494;2023-06-01T14:38:57;30.60;69.40
13808;DHT22;40769;51.512;5.494;2023-06-01T14:41:22;30.70;68.70
13808;DHT22;40769;51.512;5.494;2023-06-01T14:43:48;30.70;68.50
13808;DHT22;40769;51.512;5.494;2023-06-01T14:46:14;30.70;69.10
13808;DHT22;40769;51.512;5.494;2023-06-01T14:48:40;30.70;69.60
13808;DHT22;40769;51.512;5.494;2023-06-01T14:51:05;30.80;70.00
13808;DHT22;40769;51.512;5.494;2023-06-01T14:53:31;30.80;70.10
13808;DHT22;40769;51.512;5.494;2023-06-01T14:55:56;30.90;70.20
13808;DHT22;40769;51.512;5.494;2023-06-01T14:58:22;30.90;70.10
13808;DHT22;40769;51.512;5.494;2023-06-01T15:00:48;30.80;69.60
13808;DHT22;40769;51.512;5.494;2023-06-01T15:03:15;30.60;69.30
13808;DHT22;40769;51.512;5.494;2023-06-01T15:05:41;30.40;69.30
13808;DHT22;40769;51.512;5.494;2023-06-01T15:08:06;30.20;69.70
13808;DHT22;40769;51.512;5.494;2023-06-01T15:10:32;30.10;70.10
13808;DHT22;40769;51.512;5.494;2023-06-01T15:12:58;29.90;70.40
13808;DHT22;40769;51.512;5.494;2023-06-01T15:15:24;29.80;70.80
13808;DHT22;40769;51.512;5.494;2023-06-01T15:17:51;29.80;71.10
13808;DHT22;40769;51.512;5.494;2023-06-01T15:20:16;29.80;71.40
13808;DHT22;40769;51.512;5.494;2023-06-01T15:22:42;29.80;71.40
13808;DHT22;40769;51.512;5.494;2023-06-01T15:25:08;29.90;71.40
13808;DHT22;40769;51.512;5.494;2023-06-01T15:27:34;30.00;71.30
13808;DHT22;40769;51.512;5.494;2023-06-01T15:30:00;29.90;71.00
13808;DHT22;40769;51.512;5.494;2023-06-01T15:32:25;29.90;70.90
13808;DHT22;40769;51.512;5.494;2023-06-01T15:34:51;29.30;70.40
13808;DHT22;40769;51.512;5.494;2023-06-01T15:37:19;29.70;70.90
13808;DHT22;40769;51.512;5.494;2023-06-01T15:39:45;29.70;71.00
13808;DHT22;40769;51.512;5.494;2023-06-01T15:42:11;29.50;70.90
13808;DHT22;40769;51.512;5.494;2023-06-01T15:44:41;29.30;70.80
13808;DHT22;40769;51.512;5.494;2023-06-01T15:47:08;29.00;71.40
13808;DHT22;40769;51.512;5.494;2023-06-01T15:49:33;28.80;71.40
13808;DHT22;40769;51.512;5.494;2023-06-01T15:51:59;28.60;72.00
13808;DHT22;40769;51.512;5.494;2023-06-01T15:54:26;28.50;72.50
13808;DHT22;40769;51.512;5.494;2023-06-01T15:56:52;28.40;72.60
13808;DHT22;40769;51.512;5.494;2023-06-01T15:59:17;28.30;72.80
13808;DHT22;40769;51.512;5.494;2023-06-01T16:01:43;28.20;73.20
13808;DHT22;40769;51.512;5.494;2023-06-01T16:04:09;28.10;73.80
13808;DHT22;40769;51.512;5.494;2023-06-01T16:06:35;28.10;74.10
13808;DHT22;40769;51.512;5.494;2023-06-01T16:09:01;28.00;74.10
13808;DHT22;40769;51.512;5.494;2023-06-01T16:11:26;27.90;74.30
13808;DHT22;40769;51.512;5.494;2023-06-01T16:13:52;27.80;74.40
13808;DHT22;40769;51.512;5.494;2023-06-01T16:16:18;27.00;73.90